This is the latest recevied weather packets stored in our database for station/object K7DC. If no packets are shown the sender has not sent any weather packets the latest 1 day(s).
| Time | Temp. | Humidity | Pressure | Rain* | Wind** | Luminosity | Snow |
|---|---|---|---|---|---|---|---|
| 1778031889 | 20.56° C | 32% | 1011.5 hPa | 0 mm | 1.79 m/s, 263° | 16 W/m² | - |
| 1778031585 | 20.56° C | 31% | 1011.3 hPa | 0 mm | 1.79 m/s, 181° | 18 W/m² | - |
| 1778031283 | 21.11° C | 31% | 1011.3 hPa | 0 mm | 1.34 m/s, 284° | 21 W/m² | - |
| 1778030979 | 21.11° C | 31% | 1011.2 hPa | 0 mm | 0.89 m/s, 293° | 23 W/m² | - |
| 1778030676 | 21.11° C | 31% | 1011.2 hPa | 0 mm | 1.79 m/s, 245° | 26 W/m² | - |
| 1778030373 | 21.11° C | 31% | 1011.4 hPa | 0 mm | 1.79 m/s, 238° | 30 W/m² | - |
| 1778030070 | 21.67° C | 30% | 1011.3 hPa | 0 mm | 1.79 m/s, 294° | 32 W/m² | - |
| 1778029767 | 21.67° C | 30% | 1011.2 hPa | 0 mm | 3.13 m/s, 269° | 35 W/m² | - |
| 1778029466 | 21.67° C | 30% | 1011.1 hPa | 0 mm | 1.79 m/s, 314° | 39 W/m² | - |
| 1778029161 | 22.22° C | 30% | 1011.2 hPa | 0 mm | 3.13 m/s, 235° | 43 W/m² | - |
| 1778028860 | 22.22° C | 31% | 1011.2 hPa | 0 mm | 1.79 m/s, 287° | 58 W/m² | - |
| 1778028554 | 22.22° C | 31% | 1011.1 hPa | 0 mm | 1.79 m/s, 240° | 82 W/m² | - |
| 1778028253 | 22.78° C | 31% | 1010.9 hPa | 0 mm | 2.68 m/s, 279° | 85 W/m² | - |
| 1778027948 | 22.22° C | 32% | 1010.9 hPa | 0 mm | 1.79 m/s, 267° | 91 W/m² | - |
| 1778027645 | 22.22° C | 31% | 1010.6 hPa | 0 mm | 2.24 m/s, 274° | 76 W/m² | - |
| 1778027342 | 22.22° C | 31% | 1010.8 hPa | 0 mm | 2.24 m/s, 255° | 82 W/m² | - |
| 1778027038 | 22.22° C | 32% | 1010.7 hPa | 0 mm | 1.34 m/s, 244° | 85 W/m² | - |
| 1778026733 | 22.22° C | 31% | 1010.9 hPa | 0 mm | 2.24 m/s, 240° | 164 W/m² | - |
| 1778026430 | 22.78° C | 29% | 1010.7 hPa | 0 mm | 1.34 m/s, 240° | 74 W/m² | - |
| 1778026134 | 22.78° C | 29% | 1010.8 hPa | 0 mm | 2.24 m/s, 258° | 92 W/m² | - |
| 1778025825 | 22.78° C | 29% | 1010.7 hPa | 0 mm | 1.79 m/s, 299° | 91 W/m² | - |
| 1778025522 | 23.33° C | 29% | 1010.7 hPa | 0 mm | 1.79 m/s, 220° | 91 W/m² | - |
| 1778025219 | 24.44° C | 25% | 1010.6 hPa | 0 mm | 2.24 m/s, 225° | 87 W/m² | - |
| 1778024916 | 23.33° C | 26% | 1010.5 hPa | 0 mm | 2.24 m/s, 225° | 326 W/m² | - |
| 1778024614 | 23.89° C | 26% | 1010.4 hPa | 0 mm | 1.34 m/s, 276° | 134 W/m² | - |
* Rain latest hour (hover to see other rain measurements)
** Current wind speed in m/s (hover to see current wind gust speed)